sensor_id;sensor_type;location;lat;lon;timestamp;temperature;humidity
58582;DHT22;44361;51.476;5.700;2023-02-28T00:00:45;-1.50;99.90
58582;DHT22;44361;51.476;5.700;2023-02-28T00:03:11;-1.50;99.90
58582;DHT22;44361;51.476;5.700;2023-02-28T00:05:36;-1.50;99.90
58582;DHT22;44361;51.476;5.700;2023-02-28T00:08:02;-1.40;99.90
58582;DHT22;44361;51.476;5.700;2023-02-28T00:10:30;-1.40;99.90
58582;DHT22;44361;51.476;5.700;2023-02-28T00:12:59;-1.40;99.90
58582;DHT22;44361;51.476;5.700;2023-02-28T00:15:25;-1.40;99.90
58582;DHT22;44361;51.476;5.700;2023-02-28T00:17:51;-1.40;99.90
58582;DHT22;44361;51.476;5.700;2023-02-28T00:20:17;-1.50;99.90
58582;DHT22;44361;51.476;5.700;2023-02-28T00:22:46;-1.40;99.90
58582;DHT22;44361;51.476;5.700;2023-02-28T00:25:14;-1.40;99.90
58582;DHT22;44361;51.476;5.700;2023-02-28T00:27:40;-1.30;99.90
58582;DHT22;44361;51.476;5.700;2023-02-28T00:30:08;-1.30;99.90
58582;DHT22;44361;51.476;5.700;2023-02-28T00:32:34;-1.30;99.90
58582;DHT22;44361;51.476;5.700;2023-02-28T00:35:00;-1.10;99.90
58582;DHT22;44361;51.476;5.700;2023-02-28T00:37:27;-1.10;99.90
58582;DHT22;44361;51.476;5.700;2023-02-28T00:39:53;-1.20;99.90
58582;DHT22;44361;51.476;5.700;2023-02-28T00:42:18;-1.30;99.90
58582;DHT22;44361;51.476;5.700;2023-02-28T00:44:44;-1.40;99.90
58582;DHT22;44361;51.476;5.700;2023-02-28T00:47:09;-1.40;99.90
58582;DHT22;44361;51.476;5.700;2023-02-28T00:49:35;-1.40;99.90
58582;DHT22;44361;51.476;5.700;2023-02-28T00:52:01;-1.50;99.90
58582;DHT22;44361;51.476;5.700;2023-02-28T00:54:26;-1.50;99.90
58582;DHT22;44361;51.476;5.700;2023-02-28T00:56:52;-1.60;99.90
58582;DHT22;44361;51.476;5.700;2023-02-28T00:59:17;-1.50;99.90
58582;DHT22;44361;51.476;5.700;2023-02-28T01:01:45;-1.50;99.90
58582;DHT22;44361;51.476;5.700;2023-02-28T01:04:11;-1.60;99.90
58582;DHT22;44361;51.476;5.700;2023-02-28T01:06:37;-1.70;99.90
58582;DHT22;44361;51.476;5.700;2023-02-28T01:09:04;-1.70;99.90
58582;DHT22;44361;51.476;5.700;2023-02-28T01:11:30;-1.80;99.90
58582;DHT22;44361;51.476;5.700;2023-02-28T01:13:56;-1.90;99.90
58582;DHT22;44361;51.476;5.700;2023-02-28T01:16:22;-2.00;99.90
58582;DHT22;44361;51.476;5.700;2023-02-28T01:18:48;-2.00;99.90
58582;DHT22;44361;51.476;5.700;2023-02-28T01:21:16;-2.10;99.90
58582;DHT22;44361;51.476;5.700;2023-02-28T01:23:43;-2.20;99.90
58582;DHT22;44361;51.476;5.700;2023-02-28T01:26:11;-2.10;99.90
58582;DHT22;44361;51.476;5.700;2023-02-28T01:28:37;-2.10;99.90
58582;DHT22;44361;51.476;5.700;2023-02-28T01:31:03;-2.10;99.90
58582;DHT22;44361;51.476;5.700;2023-02-28T01:33:29;-2.00;99.90
58582;DHT22;44361;51.476;5.700;2023-02-28T01:36:21;-2.10;99.90
58582;DHT22;44361;51.476;5.700;2023-02-28T01:38:47;-2.10;99.90
58582;DHT22;44361;51.476;5.700;2023-02-28T01:41:20;-2.10;99.90
58582;DHT22;44361;51.476;5.700;2023-02-28T01:46:12;-2.00;99.90
58582;DHT22;44361;51.476;5.700;2023-02-28T01:51:16;-2.00;99.90
58582;DHT22;44361;51.476;5.700;2023-02-28T01:53:47;-1.90;99.90
58582;DHT22;44361;51.476;5.700;2023-02-28T01:56:14;-2.00;99.90
58582;DHT22;44361;51.476;5.700;2023-02-28T01:58:46;-2.00;99.90
58582;DHT22;44361;51.476;5.700;2023-02-28T02:01:12;-2.00;99.90
58582;DHT22;44361;51.476;5.700;2023-02-28T02:03:49;-2.00;99.90
58582;DHT22;44361;51.476;5.700;2023-02-28T02:06:21;-1.90;99.90
58582;DHT22;44361;51.476;5.700;2023-02-28T02:08:47;-1.90;99.90
58582;DHT22;44361;51.476;5.700;2023-02-28T02:11:13;-1.90;99.90
58582;DHT22;44361;51.476;5.700;2023-02-28T02:25:11;-1.90;99.90
58582;DHT22;44361;51.476;5.700;2023-02-28T02:28:03;-2.00;99.90
58582;DHT22;44361;51.476;5.700;2023-02-28T02:33:46;-2.10;99.90
58582;DHT22;44361;51.476;5.700;2023-02-28T02:36:25;-2.10;99.90
58582;DHT22;44361;51.476;5.700;2023-02-28T02:39:14;-2.10;99.90
58582;DHT22;44361;51.476;5.700;2023-02-28T02:41:54;-2.20;99.90
58582;DHT22;44361;51.476;5.700;2023-02-28T02:47:06;-2.10;99.90
58582;DHT22;44361;51.476;5.700;2023-02-28T02:49:36;-2.10;99.90
58582;DHT22;44361;51.476;5.700;2023-02-28T02:52:11;-2.10;99.90
58582;DHT22;44361;51.476;5.700;2023-02-28T02:54:41;-2.00;99.90
58582;DHT22;44361;51.476;5.700;2023-02-28T02:57:11;-1.90;99.90
58582;DHT22;44361;51.476;5.700;2023-02-28T02:59:40;-1.80;99.90
58582;DHT22;44361;51.476;5.700;2023-02-28T03:02:08;-1.80;99.90
58582;DHT22;44361;51.476;5.700;2023-02-28T03:04:42;-1.90;99.90
58582;DHT22;44361;51.476;5.700;2023-02-28T03:07:09;-1.80;99.90
58582;DHT22;44361;51.476;5.700;2023-02-28T03:09:34;-1.60;99.90
58582;DHT22;44361;51.476;5.700;2023-02-28T03:12:01;-1.50;99.90
58582;DHT22;44361;51.476;5.700;2023-02-28T03:14:48;-1.40;99.90
58582;DHT22;44361;51.476;5.700;2023-02-28T03:17:50;-1.30;99.90
58582;DHT22;44361;51.476;5.700;2023-02-28T03:20:35;-1.20;99.90
58582;DHT22;44361;51.476;5.700;2023-02-28T03:23:23;-1.30;99.90
58582;DHT22;44361;51.476;5.700;2023-02-28T03:25:56;-1.30;99.90
58582;DHT22;44361;51.476;5.700;2023-02-28T03:31:18;-1.20;99.90
58582;DHT22;44361;51.476;5.700;2023-02-28T03:33:49;-1.20;99.90
58582;DHT22;44361;51.476;5.700;2023-02-28T03:36:26;-1.10;99.90
58582;DHT22;44361;51.476;5.700;2023-02-28T03:39:03;-1.00;99.90
58582;DHT22;44361;51.476;5.700;2023-02-28T03:41:50;-1.00;99.90
58582;DHT22;44361;51.476;5.700;2023-02-28T03:44:34;-0.90;99.90
58582;DHT22;44361;51.476;5.700;2023-02-28T03:47:16;-0.80;99.90
58582;DHT22;44361;51.476;5.700;2023-02-28T03:50:11;-0.80;99.90
58582;DHT22;44361;51.476;5.700;2023-02-28T03:52:44;-0.80;99.90
58582;DHT22;44361;51.476;5.700;2023-02-28T03:55:13;-0.70;99.90
58582;DHT22;44361;51.476;5.700;2023-02-28T04:00:38;-0.60;99.90
58582;DHT22;44361;51.476;5.700;2023-02-28T04:03:05;-0.60;99.90
58582;DHT22;44361;51.476;5.700;2023-02-28T04:05:32;-0.60;99.90
58582;DHT22;44361;51.476;5.700;2023-02-28T04:08:05;-0.50;99.90
58582;DHT22;44361;51.476;5.700;2023-02-28T04:10:31;-0.50;99.90
58582;DHT22;44361;51.476;5.700;2023-02-28T04:12:57;-0.40;99.90
58582;DHT22;44361;51.476;5.700;2023-02-28T04:15:22;-0.30;99.90
58582;DHT22;44361;51.476;5.700;2023-02-28T04:17:50;-0.30;99.90
58582;DHT22;44361;51.476;5.700;2023-02-28T04:20:15;-0.30;99.90
58582;DHT22;44361;51.476;5.700;2023-02-28T04:22:41;-0.20;99.90
58582;DHT22;44361;51.476;5.700;2023-02-28T04:25:07;-0.10;99.90
58582;DHT22;44361;51.476;5.700;2023-02-28T04:27:33;-0.10;99.80
58582;DHT22;44361;51.476;5.700;2023-02-28T04:29:58;-0.10;99.70
58582;DHT22;44361;51.476;5.700;2023-02-28T04:32:24;0.00;99.70
58582;DHT22;44361;51.476;5.700;2023-02-28T04:34:49;-0.10;99.60
58582;DHT22;44361;51.476;5.700;2023-02-28T04:37:15;0.00;99.50
58582;DHT22;44361;51.476;5.700;2023-02-28T04:39:41;0.00;99.30
58582;DHT22;44361;51.476;5.700;2023-02-28T04:42:07;0.10;99.40
58582;DHT22;44361;51.476;5.700;2023-02-28T04:44:33;0.10;99.10
58582;DHT22;44361;51.476;5.700;2023-02-28T04:46:58;0.10;99.10
58582;DHT22;44361;51.476;5.700;2023-02-28T04:49:24;0.10;99.00
58582;DHT22;44361;51.476;5.700;2023-02-28T04:51:49;0.10;99.10
58582;DHT22;44361;51.476;5.700;2023-02-28T04:54:15;0.10;99.20
58582;DHT22;44361;51.476;5.700;2023-02-28T04:56:41;0.10;99.10
58582;DHT22;44361;51.476;5.700;2023-02-28T04:59:07;0.10;99.10
58582;DHT22;44361;51.476;5.700;2023-02-28T05:01:33;0.00;99.00
58582;DHT22;44361;51.476;5.700;2023-02-28T05:04:01;0.00;99.10
58582;DHT22;44361;51.476;5.700;2023-02-28T05:06:29;0.00;99.00
58582;DHT22;44361;51.476;5.700;2023-02-28T05:08:55;0.00;99.10
58582;DHT22;44361;51.476;5.700;2023-02-28T05:11:27;0.00;99.00
58582;DHT22;44361;51.476;5.700;2023-02-28T05:13:55;-0.10;99.10
58582;DHT22;44361;51.476;5.700;2023-02-28T05:16:21;-0.10;99.20
58582;DHT22;44361;51.476;5.700;2023-02-28T05:18:47;-0.10;99.30
58582;DHT22;44361;51.476;5.700;2023-02-28T05:23:55;0.00;99.30
58582;DHT22;44361;51.476;5.700;2023-02-28T05:26:21;0.00;99.20
58582;DHT22;44361;51.476;5.700;2023-02-28T05:28:47;0.00;99.00
58582;DHT22;44361;51.476;5.700;2023-02-28T05:31:13;0.00;99.00
58582;DHT22;44361;51.476;5.700;2023-02-28T05:33:39;0.00;99.10
58582;DHT22;44361;51.476;5.700;2023-02-28T05:36:05;0.00;99.10
58582;DHT22;44361;51.476;5.700;2023-02-28T05:38:31;0.00;98.90
58582;DHT22;44361;51.476;5.700;2023-02-28T05:40:57;0.00;98.90
58582;DHT22;44361;51.476;5.700;2023-02-28T05:43:23;0.00;98.70
58582;DHT22;44361;51.476;5.700;2023-02-28T05:45:48;0.00;98.80
58582;DHT22;44361;51.476;5.700;2023-02-28T05:48:14;-0.10;98.90
58582;DHT22;44361;51.476;5.700;2023-02-28T05:50:39;0.00;99.10
58582;DHT22;44361;51.476;5.700;2023-02-28T05:53:05;-0.10;98.90
58582;DHT22;44361;51.476;5.700;2023-02-28T05:55:30;-0.10;98.90
58582;DHT22;44361;51.476;5.700;2023-02-28T05:57:56;-0.10;98.90
58582;DHT22;44361;51.476;5.700;2023-02-28T06:00:22;-0.20;99.00
58582;DHT22;44361;51.476;5.700;2023-02-28T06:02:47;-0.20;99.30
58582;DHT22;44361;51.476;5.700;2023-02-28T06:05:15;-0.20;99.20
58582;DHT22;44361;51.476;5.700;2023-02-28T06:07:42;-0.20;99.10
58582;DHT22;44361;51.476;5.700;2023-02-28T06:10:08;-0.20;99.10
58582;DHT22;44361;51.476;5.700;2023-02-28T06:12:34;-0.20;99.20
58582;DHT22;44361;51.476;5.700;2023-02-28T06:15:00;-0.20;99.30
58582;DHT22;44361;51.476;5.700;2023-02-28T06:17:25;-0.20;99.10
58582;DHT22;44361;51.476;5.700;2023-02-28T06:19:51;-0.20;98.90
58582;DHT22;44361;51.476;5.700;2023-02-28T06:22:16;-0.30;98.90
58582;DHT22;44361;51.476;5.700;2023-02-28T06:24:42;-0.40;98.90
58582;DHT22;44361;51.476;5.700;2023-02-28T06:27:07;-0.40;99.20
58582;DHT22;44361;51.476;5.700;2023-02-28T06:29:34;-0.40;99.20
58582;DHT22;44361;51.476;5.700;2023-02-28T06:31:59;-0.40;99.10
58582;DHT22;44361;51.476;5.700;2023-02-28T06:34:25;-0.40;99.10
58582;DHT22;44361;51.476;5.700;2023-02-28T06:36:51;-0.40;99.00
58582;DHT22;44361;51.476;5.700;2023-02-28T06:39:17;-0.40;98.80
58582;DHT22;44361;51.476;5.700;2023-02-28T06:41:43;-0.40;98.80
58582;DHT22;44361;51.476;5.700;2023-02-28T06:44:18;-0.50;98.90
58582;DHT22;44361;51.476;5.700;2023-02-28T06:46:44;-0.50;99.00
58582;DHT22;44361;51.476;5.700;2023-02-28T06:49:10;-0.50;99.00
58582;DHT22;44361;51.476;5.700;2023-02-28T06:51:38;-0.40;98.70
58582;DHT22;44361;51.476;5.700;2023-02-28T06:54:05;-0.40;98.50
58582;DHT22;44361;51.476;5.700;2023-02-28T06:56:34;-0.50;98.60
58582;DHT22;44361;51.476;5.700;2023-02-28T06:59:00;-0.50;98.60
58582;DHT22;44361;51.476;5.700;2023-02-28T07:01:25;-0.50;98.50
58582;DHT22;44361;51.476;5.700;2023-02-28T07:03:53;-0.50;98.60
58582;DHT22;44361;51.476;5.700;2023-02-28T07:06:21;-0.60;98.60
58582;DHT22;44361;51.476;5.700;2023-02-28T07:08:48;-0.60;98.60
58582;DHT22;44361;51.476;5.700;2023-02-28T07:11:13;-0.50;98.50
58582;DHT22;44361;51.476;5.700;2023-02-28T07:13:39;-0.40;98.60
58582;DHT22;44361;51.476;5.700;2023-02-28T07:16:07;-0.40;98.40
58582;DHT22;44361;51.476;5.700;2023-02-28T07:18:34;-0.40;98.50
58582;DHT22;44361;51.476;5.700;2023-02-28T07:21:03;-0.30;98.50
58582;DHT22;44361;51.476;5.700;2023-02-28T07:23:28;-0.20;98.10
58582;DHT22;44361;51.476;5.700;2023-02-28T07:25:54;-0.20;97.90
58582;DHT22;44361;51.476;5.700;2023-02-28T07:28:20;-0.20;97.70
58582;DHT22;44361;51.476;5.700;2023-02-28T07:30:45;-0.10;97.70
58582;DHT22;44361;51.476;5.700;2023-02-28T07:33:11;0.10;97.40
58582;DHT22;44361;51.476;5.700;2023-02-28T07:35:36;0.20;96.40
58582;DHT22;44361;51.476;5.700;2023-02-28T07:38:03;0.30;95.50
58582;DHT22;44361;51.476;5.700;2023-02-28T07:40:29;0.40;94.80
58582;DHT22;44361;51.476;5.700;2023-02-28T07:42:54;0.40;94.60
58582;DHT22;44361;51.476;5.700;2023-02-28T07:45:20;0.40;94.20
58582;DHT22;44361;51.476;5.700;2023-02-28T07:47:47;0.40;93.70
58582;DHT22;44361;51.476;5.700;2023-02-28T07:50:14;0.50;93.70
58582;DHT22;44361;51.476;5.700;2023-02-28T07:52:40;0.50;93.60
58582;DHT22;44361;51.476;5.700;2023-02-28T07:55:07;0.60;93.70
58582;DHT22;44361;51.476;5.700;2023-02-28T07:57:33;0.60;92.90
58582;DHT22;44361;51.476;5.700;2023-02-28T07:59:58;0.70;93.20
58582;DHT22;44361;51.476;5.700;2023-02-28T08:02:24;0.80;93.10
58582;DHT22;44361;51.476;5.700;2023-02-28T08:04:50;0.80;92.70
58582;DHT22;44361;51.476;5.700;2023-02-28T08:07:16;1.00;92.60
58582;DHT22;44361;51.476;5.700;2023-02-28T08:09:43;1.10;91.70
58582;DHT22;44361;51.476;5.700;2023-02-28T08:12:10;1.20;90.60
58582;DHT22;44361;51.476;5.700;2023-02-28T08:14:35;1.10;90.20
58582;DHT22;44361;51.476;5.700;2023-02-28T08:17:01;1.10;89.40
58582;DHT22;44361;51.476;5.700;2023-02-28T08:19:27;1.10;89.80
58582;DHT22;44361;51.476;5.700;2023-02-28T08:21:54;1.10;89.60
58582;DHT22;44361;51.476;5.700;2023-02-28T08:24:19;1.20;89.40
58582;DHT22;44361;51.476;5.700;2023-02-28T08:26:45;1.20;90.00
58582;DHT22;44361;51.476;5.700;2023-02-28T08:29:11;1.30;89.70
58582;DHT22;44361;51.476;5.700;2023-02-28T08:31:36;1.40;90.00
58582;DHT22;44361;51.476;5.700;2023-02-28T08:34:10;1.50;89.70
58582;DHT22;44361;51.476;5.700;2023-02-28T08:36:37;1.50;87.70
58582;DHT22;44361;51.476;5.700;2023-02-28T08:39:02;1.60;87.50
58582;DHT22;44361;51.476;5.700;2023-02-28T08:41:28;1.70;86.20
58582;DHT22;44361;51.476;5.700;2023-02-28T08:43:53;1.80;85.30
58582;DHT22;44361;51.476;5.700;2023-02-28T08:46:19;1.80;85.00
58582;DHT22;44361;51.476;5.700;2023-02-28T08:48:45;1.90;84.50
58582;DHT22;44361;51.476;5.700;2023-02-28T08:51:16;2.00;83.60
58582;DHT22;44361;51.476;5.700;2023-02-28T08:53:44;2.00;81.40
58582;DHT22;44361;51.476;5.700;2023-02-28T08:56:12;2.10;81.60
58582;DHT22;44361;51.476;5.700;2023-02-28T08:58:39;2.20;81.10
58582;DHT22;44361;51.476;5.700;2023-02-28T09:01:14;2.30;78.20
58582;DHT22;44361;51.476;5.700;2023-02-28T09:03:41;2.30;78.20
58582;DHT22;44361;51.476;5.700;2023-02-28T09:06:11;2.40;77.60
58582;DHT22;44361;51.476;5.700;2023-02-28T09:08:38;2.50;75.20
58582;DHT22;44361;51.476;5.700;2023-02-28T09:11:04;2.70;76.90
58582;DHT22;44361;51.476;5.700;2023-02-28T09:13:29;2.90;75.60
58582;DHT22;44361;51.476;5.700;2023-02-28T09:15:58;3.10;72.10
58582;DHT22;44361;51.476;5.700;2023-02-28T09:18:25;2.90;68.10
58582;DHT22;44361;51.476;5.700;2023-02-28T09:20:51;2.90;64.60
58582;DHT22;44361;51.476;5.700;2023-02-28T09:23:17;3.00;64.80
58582;DHT22;44361;51.476;5.700;2023-02-28T09:26:01;3.00;62.00
58582;DHT22;44361;51.476;5.700;2023-02-28T09:28:26;3.10;61.60
58582;DHT22;44361;51.476;5.700;2023-02-28T09:30:53;3.10;58.00
58582;DHT22;44361;51.476;5.700;2023-02-28T09:33:20;3.10;59.30
58582;DHT22;44361;51.476;5.700;2023-02-28T09:35:47;3.20;57.80
58582;DHT22;44361;51.476;5.700;2023-02-28T09:38:13;3.30;58.90
58582;DHT22;44361;51.476;5.700;2023-02-28T09:41:00;3.40;59.20
58582;DHT22;44361;51.476;5.700;2023-02-28T09:43:33;3.50;58.20
58582;DHT22;44361;51.476;5.700;2023-02-28T09:46:12;3.50;57.50
58582;DHT22;44361;51.476;5.700;2023-02-28T09:48:41;3.50;55.50
58582;DHT22;44361;51.476;5.700;2023-02-28T09:53:49;3.50;54.70
58582;DHT22;44361;51.476;5.700;2023-02-28T09:56:25;3.40;53.10
58582;DHT22;44361;51.476;5.700;2023-02-28T09:59:04;3.50;52.50
58582;DHT22;44361;51.476;5.700;2023-02-28T10:01:39;3.50;52.30
58582;DHT22;44361;51.476;5.700;2023-02-28T10:06:48;3.70;50.90
58582;DHT22;44361;51.476;5.700;2023-02-28T10:09:18;3.50;51.10
58582;DHT22;44361;51.476;5.700;2023-02-28T10:11:48;3.60;51.70
58582;DHT22;44361;51.476;5.700;2023-02-28T10:14:22;3.70;52.40
58582;DHT22;44361;51.476;5.700;2023-02-28T10:16:52;3.80;52.00
58582;DHT22;44361;51.476;5.700;2023-02-28T10:19:30;3.90;51.00
58582;DHT22;44361;51.476;5.700;2023-02-28T10:22:29;4.00;50.60
58582;DHT22;44361;51.476;5.700;2023-02-28T10:24:58;3.90;48.80
58582;DHT22;44361;51.476;5.700;2023-02-28T10:27:31;3.80;49.10
58582;DHT22;44361;51.476;5.700;2023-02-28T10:29:58;3.90;49.60
58582;DHT22;44361;51.476;5.700;2023-02-28T10:32:31;3.90;49.50
58582;DHT22;44361;51.476;5.700;2023-02-28T10:35:01;4.00;49.50
58582;DHT22;44361;51.476;5.700;2023-02-28T10:37:32;3.90;49.10
58582;DHT22;44361;51.476;5.700;2023-02-28T10:40:03;4.00;48.90
58582;DHT22;44361;51.476;5.700;2023-02-28T10:42:31;4.00;48.10
58582;DHT22;44361;51.476;5.700;2023-02-28T10:47:59;4.10;48.50
58582;DHT22;44361;51.476;5.700;2023-02-28T11:01:22;4.20;46.80
58582;DHT22;44361;51.476;5.700;2023-02-28T11:03:48;4.40;49.00
58582;DHT22;44361;51.476;5.700;2023-02-28T11:08:56;4.40;47.00
58582;DHT22;44361;51.476;5.700;2023-02-28T11:11:25;4.40;47.40
58582;DHT22;44361;51.476;5.700;2023-02-28T11:14:04;4.50;49.30
58582;DHT22;44361;51.476;5.700;2023-02-28T11:16:36;4.60;49.30
58582;DHT22;44361;51.476;5.700;2023-02-28T11:19:04;4.50;47.90
58582;DHT22;44361;51.476;5.700;2023-02-28T11:21:33;4.40;47.40
58582;DHT22;44361;51.476;5.700;2023-02-28T11:24:05;4.40;47.70
58582;DHT22;44361;51.476;5.700;2023-02-28T11:26:44;4.50;48.10
58582;DHT22;44361;51.476;5.700;2023-02-28T11:32:01;4.50;48.50
58582;DHT22;44361;51.476;5.700;2023-02-28T11:34:28;4.60;49.20
58582;DHT22;44361;51.476;5.700;2023-02-28T11:36:58;4.70;49.20
58582;DHT22;44361;51.476;5.700;2023-02-28T11:39:25;4.70;48.40
58582;DHT22;44361;51.476;5.700;2023-02-28T11:44:44;4.80;49.20
58582;DHT22;44361;51.476;5.700;2023-02-28T11:50:04;4.80;48.70
58582;DHT22;44361;51.476;5.700;2023-02-28T11:52:52;4.80;48.30
58582;DHT22;44361;51.476;5.700;2023-02-28T11:55:39;4.80;48.40
58582;DHT22;44361;51.476;5.700;2023-02-28T12:00:40;4.70;47.80
58582;DHT22;44361;51.476;5.700;2023-02-28T12:03:20;4.80;48.20
58582;DHT22;44361;51.476;5.700;2023-02-28T12:09:44;4.90;47.90
58582;DHT22;44361;51.476;5.700;2023-02-28T12:11:54;4.80;47.40
58582;DHT22;44361;51.476;5.700;2023-02-28T12:20:05;5.00;48.60
58582;DHT22;44361;51.476;5.700;2023-02-28T12:28:02;5.30;49.90
58582;DHT22;44361;51.476;5.700;2023-02-28T12:30:31;5.40;48.30
58582;DHT22;44361;51.476;5.700;2023-02-28T12:33:10;5.20;47.20
58582;DHT22;44361;51.476;5.700;2023-02-28T12:35:48;5.30;46.90
58582;DHT22;44361;51.476;5.700;2023-02-28T12:38:21;5.10;46.40
58582;DHT22;44361;51.476;5.700;2023-02-28T12:40:59;5.20;47.70
58582;DHT22;44361;51.476;5.700;2023-02-28T12:43:33;5.20;47.30
58582;DHT22;44361;51.476;5.700;2023-02-28T12:48:39;5.40;47.60
58582;DHT22;44361;51.476;5.700;2023-02-28T12:51:07;5.30;47.20
58582;DHT22;44361;51.476;5.700;2023-02-28T12:59:49;5.40;48.60
58582;DHT22;44361;51.476;5.700;2023-02-28T13:10:12;5.30;46.80
58582;DHT22;44361;51.476;5.700;2023-02-28T13:13:03;5.30;46.90
58582;DHT22;44361;51.476;5.700;2023-02-28T13:15:30;5.30;46.50
58582;DHT22;44361;51.476;5.700;2023-02-28T13:18:00;5.40;48.00
58582;DHT22;44361;51.476;5.700;2023-02-28T13:20:32;5.50;47.60
58582;DHT22;44361;51.476;5.700;2023-02-28T13:22:59;5.50;46.30
58582;DHT22;44361;51.476;5.700;2023-02-28T13:28:13;5.50;45.60
58582;DHT22;44361;51.476;5.700;2023-02-28T13:31:05;5.50;45.80
58582;DHT22;44361;51.476;5.700;2023-02-28T13:33:35;5.60;47.40
58582;DHT22;44361;51.476;5.700;2023-02-28T13:38:50;5.60;47.00
58582;DHT22;44361;51.476;5.700;2023-02-28T13:46:26;5.50;46.60
58582;DHT22;44361;51.476;5.700;2023-02-28T13:48:53;5.60;47.10
58582;DHT22;44361;51.476;5.700;2023-02-28T13:51:49;5.60;46.50
58582;DHT22;44361;51.476;5.700;2023-02-28T13:54:48;5.50;46.70
58582;DHT22;44361;51.476;5.700;2023-02-28T14:02:34;5.70;47.70
58582;DHT22;44361;51.476;5.700;2023-02-28T14:05:17;5.70;48.40
58582;DHT22;44361;51.476;5.700;2023-02-28T14:07:52;5.70;47.60
58582;DHT22;44361;51.476;5.700;2023-02-28T14:13:42;5.70;48.20
58582;DHT22;44361;51.476;5.700;2023-02-28T14:16:11;5.70;47.90
58582;DHT22;44361;51.476;5.700;2023-02-28T14:18:42;5.70;48.10
58582;DHT22;44361;51.476;5.700;2023-02-28T14:21:16;5.70;47.30
58582;DHT22;44361;51.476;5.700;2023-02-28T14:23:47;5.60;47.20
58582;DHT22;44361;51.476;5.700;2023-02-28T14:26:29;5.60;47.30
58582;DHT22;44361;51.476;5.700;2023-02-28T14:32:17;5.50;47.40
58582;DHT22;44361;51.476;5.700;2023-02-28T14:34:54;5.60;47.40
58582;DHT22;44361;51.476;5.700;2023-02-28T14:37:28;5.50;47.50
58582;DHT22;44361;51.476;5.700;2023-02-28T14:39:55;5.50;47.70
58582;DHT22;44361;51.476;5.700;2023-02-28T14:42:31;5.60;48.30
58582;DHT22;44361;51.476;5.700;2023-02-28T14:44:57;5.70;49.20
58582;DHT22;44361;51.476;5.700;2023-02-28T14:47:27;5.70;48.80
58582;DHT22;44361;51.476;5.700;2023-02-28T14:49:53;5.70;48.90
58582;DHT22;44361;51.476;5.700;2023-02-28T14:52:24;5.70;47.60
58582;DHT22;44361;51.476;5.700;2023-02-28T14:54:55;5.70;47.70
58582;DHT22;44361;51.476;5.700;2023-02-28T14:57:27;5.80;48.10
58582;DHT22;44361;51.476;5.700;2023-02-28T15:02:36;5.70;48.20
58582;DHT22;44361;51.476;5.700;2023-02-28T15:07:37;5.70;48.40
58582;DHT22;44361;51.476;5.700;2023-02-28T15:10:25;5.70;48.80
58582;DHT22;44361;51.476;5.700;2023-02-28T15:13:10;5.70;48.90
58582;DHT22;44361;51.476;5.700;2023-02-28T15:18:06;5.70;48.10
58582;DHT22;44361;51.476;5.700;2023-02-28T15:20:33;5.60;47.70
58582;DHT22;44361;51.476;5.700;2023-02-28T15:23:00;5.60;48.20
58582;DHT22;44361;51.476;5.700;2023-02-28T15:25:26;5.60;48.30
58582;DHT22;44361;51.476;5.700;2023-02-28T15:27:54;5.60;48.50
58582;DHT22;44361;51.476;5.700;2023-02-28T15:30:26;5.50;48.10
58582;DHT22;44361;51.476;5.700;2023-02-28T15:35:31;5.60;49.40
58582;DHT22;44361;51.476;5.700;2023-02-28T15:38:03;5.50;49.00
58582;DHT22;44361;51.476;5.700;2023-02-28T15:40:54;5.60;49.80
58582;DHT22;44361;51.476;5.700;2023-02-28T15:43:24;5.60;49.50
58582;DHT22;44361;51.476;5.700;2023-02-28T15:46:06;5.50;49.40
58582;DHT22;44361;51.476;5.700;2023-02-28T15:48:53;5.50;50.20
58582;DHT22;44361;51.476;5.700;2023-02-28T15:51:23;5.50;50.10
58582;DHT22;44361;51.476;5.700;2023-02-28T15:54:08;5.40;48.80
58582;DHT22;44361;51.476;5.700;2023-02-28T15:56:46;5.40;49.90
58582;DHT22;44361;51.476;5.700;2023-02-28T15:59:21;5.30;50.50
58582;DHT22;44361;51.476;5.700;2023-02-28T16:07:38;5.30;50.50
58582;DHT22;44361;51.476;5.700;2023-02-28T16:10:05;5.30;50.20
58582;DHT22;44361;51.476;5.700;2023-02-28T16:12:34;5.30;50.00
58582;DHT22;44361;51.476;5.700;2023-02-28T16:15:02;5.20;50.90
58582;DHT22;44361;51.476;5.700;2023-02-28T16:17:36;5.10;51.70
58582;DHT22;44361;51.476;5.700;2023-02-28T16:20:16;5.10;51.00
58582;DHT22;44361;51.476;5.700;2023-02-28T16:22:42;5.10;50.90
58582;DHT22;44361;51.476;5.700;2023-02-28T16:25:12;5.00;50.90
58582;DHT22;44361;51.476;5.700;2023-02-28T16:27:38;5.00;51.70
58582;DHT22;44361;51.476;5.700;2023-02-28T16:30:05;4.90;51.10
58582;DHT22;44361;51.476;5.700;2023-02-28T16:32:34;4.90;50.70
58582;DHT22;44361;51.476;5.700;2023-02-28T16:35:00;4.90;51.30
58582;DHT22;44361;51.476;5.700;2023-02-28T16:37:27;4.80;51.70
58582;DHT22;44361;51.476;5.700;2023-02-28T16:39:53;4.80;51.60
58582;DHT22;44361;51.476;5.700;2023-02-28T16:42:25;4.70;52.40
58582;DHT22;44361;51.476;5.700;2023-02-28T16:44:52;4.70;52.40
58582;DHT22;44361;51.476;5.700;2023-02-28T16:47:18;4.70;52.50
58582;DHT22;44361;51.476;5.700;2023-02-28T16:49:44;4.60;52.50
58582;DHT22;44361;51.476;5.700;2023-02-28T16:52:10;4.60;52.80
58582;DHT22;44361;51.476;5.700;2023-02-28T16:54:37;4.50;53.30
58582;DHT22;44361;51.476;5.700;2023-02-28T16:57:04;4.30;53.00
58582;DHT22;44361;51.476;5.700;2023-02-28T16:59:29;4.30;53.50
58582;DHT22;44361;51.476;5.700;2023-02-28T17:01:56;4.20;54.10
58582;DHT22;44361;51.476;5.700;2023-02-28T17:04:26;4.10;54.20
58582;DHT22;44361;51.476;5.700;2023-02-28T17:06:52;4.10;54.30
58582;DHT22;44361;51.476;5.700;2023-02-28T17:09:22;4.00;54.90
58582;DHT22;44361;51.476;5.700;2023-02-28T17:11:48;3.90;55.10
58582;DHT22;44361;51.476;5.700;2023-02-28T17:14:14;3.80;55.50
58582;DHT22;44361;51.476;5.700;2023-02-28T17:16:40;3.70;55.60
58582;DHT22;44361;51.476;5.700;2023-02-28T17:19:11;3.60;56.00
58582;DHT22;44361;51.476;5.700;2023-02-28T17:21:37;3.60;55.80
58582;DHT22;44361;51.476;5.700;2023-02-28T17:24:03;3.60;56.20
58582;DHT22;44361;51.476;5.700;2023-02-28T17:26:29;3.50;55.90
58582;DHT22;44361;51.476;5.700;2023-02-28T17:28:56;3.50;56.30
58582;DHT22;44361;51.476;5.700;2023-02-28T17:31:23;3.40;56.60
58582;DHT22;44361;51.476;5.700;2023-02-28T17:33:49;3.30;56.90
58582;DHT22;44361;51.476;5.700;2023-02-28T17:36:17;3.10;57.30
58582;DHT22;44361;51.476;5.700;2023-02-28T17:38:47;3.00;57.30
58582;DHT22;44361;51.476;5.700;2023-02-28T17:41:12;2.80;57.80
58582;DHT22;44361;51.476;5.700;2023-02-28T17:43:38;2.70;58.20
58582;DHT22;44361;51.476;5.700;2023-02-28T17:46:04;2.60;58.40
58582;DHT22;44361;51.476;5.700;2023-02-28T17:48:33;2.50;58.70
58582;DHT22;44361;51.476;5.700;2023-02-28T17:50:58;2.40;59.20
58582;DHT22;44361;51.476;5.700;2023-02-28T17:53:24;2.30;59.40
58582;DHT22;44361;51.476;5.700;2023-02-28T17:55:50;2.30;59.50
58582;DHT22;44361;51.476;5.700;2023-02-28T17:58:15;2.20;59.70
58582;DHT22;44361;51.476;5.700;2023-02-28T18:00:41;2.10;59.70
58582;DHT22;44361;51.476;5.700;2023-02-28T18:03:07;2.00;60.10
58582;DHT22;44361;51.476;5.700;2023-02-28T18:05:33;2.00;60.30
58582;DHT22;44361;51.476;5.700;2023-02-28T18:08:01;1.90;60.40